Time;durP1;ratioP1;P1;durP2;ratioP2;P2;SDS_P1;SDS_P2;PMS_P1;PMS_P2;Temp;Humidity;BMP_temperature;BMP_pressure;BME280_temperature;BME280_humidity;BME280_pressure;Samples;Min_cycle;Max_cycle;Signal;HPM_P1;HPM_P2
2022/10/19 00:01:08;;;;;;;6.78;1.00;;;10.60;99.90;;;;;;5020687;28;20099;-83
2022/10/19 00:03:34;;;;;;;9.75;1.52;;;10.60;99.90;;;;;;5024277;28;20517;-83
2022/10/19 00:06:08;;;;;;;7.53;1.55;;;11.60;99.90;;;;;;5009515;28;20037;-82
2022/10/19 00:08:34;;;;;;;8.57;1.25;;;10.60;99.90;;;;;;4991283;28;20084;-83
2022/10/19 00:11:00;;;;;;;7.50;1.25;;;11.60;99.90;;;;;;5010565;28;20086;-83
2022/10/19 00:13:26;;;;;;;13.70;1.90;;;11.80;99.90;;;;;;5007105;28;20038;-83
2022/10/19 00:15:51;;;;;;;9.57;1.40;;;10.60;99.90;;;;;;5007446;28;20447;-82
2022/10/19 00:18:17;;;;;;;6.00;1.40;;;10.60;99.90;;;;;;4991870;28;20052;-82
2022/10/19 00:20:43;;;;;;;6.03;1.13;;;10.60;99.90;;;;;;4993310;28;20206;-82
2022/10/19 00:23:08;;;;;;;6.05;1.23;;;10.60;99.90;;;;;;5008563;28;20076;-82
2022/10/19 00:25:35;;;;;;;3.35;0.93;;;10.70;99.90;;;;;;4989747;28;20052;-83
2022/10/19 00:28:01;;;;;;;8.00;1.60;;;10.70;99.90;;;;;;5006009;28;20037;-83
2022/10/19 00:30:27;;;;;;;4.72;1.35;;;10.70;99.90;;;;;;5009391;28;20059;-83
2022/10/19 00:32:52;;;;;;;6.82;1.17;;;10.70;99.90;;;;;;5028659;28;20075;-83
2022/10/19 00:35:18;;;;;;;5.70;1.10;;;11.80;99.90;;;;;;5030686;28;20092;-83
2022/10/19 00:37:43;;;;;;;8.30;1.83;;;12.00;99.90;;;;;;5029107;28;20068;-82
2022/10/19 00:40:09;;;;;;;6.03;1.55;;;12.00;99.90;;;;;;4995439;28;20041;-83
2022/10/19 00:42:35;;;;;;;9.05;1.23;;;10.70;99.90;;;;;;5027643;28;20519;-83
2022/10/19 00:45:05;;;;;;;8.95;1.33;;;10.80;99.90;;;;;;5010490;28;20029;-82
2022/10/19 00:47:32;;;;;;;7.63;1.30;;;10.80;99.90;;;;;;4996315;28;20041;-83
2022/10/19 00:49:58;;;;;;;9.88;1.83;;;10.80;99.90;;;;;;5008449;28;20041;-83
2022/10/19 00:52:25;;;;;;;7.68;0.95;;;11.90;99.90;;;;;;5011176;28;20123;-83
2022/10/19 00:54:52;;;;;;;7.60;1.10;;;12.20;99.90;;;;;;5010874;28;20412;-83
2022/10/19 00:57:19;;;;;;;5.80;1.50;;;11.40;99.90;;;;;;5027529;28;20073;-83
2022/10/19 00:59:45;;;;;;;10.13;1.83;;;10.70;99.90;;;;;;5027105;28;20056;-82
2022/10/19 01:02:12;;;;;;;7.88;2.30;;;11.40;99.90;;;;;;5010993;28;20633;-82
2022/10/19 01:04:42;;;;;;;7.80;1.23;;;10.80;99.90;;;;;;5012495;28;20088;-82
2022/10/19 01:07:08;;;;;;;5.57;1.23;;;10.90;99.90;;;;;;4994830;28;20046;-83
2022/10/19 01:09:34;;;;;;;6.75;1.08;;;10.80;99.90;;;;;;5012586;28;20045;-83
2022/10/19 01:12:32;;;;;;;10.40;1.35;;;11.50;99.90;;;;;;4993102;28;20076;-83
2022/10/19 01:15:21;;;;;;;7.85;1.10;;;12.20;99.90;;;;;;4991108;28;20075;-83
2022/10/19 01:17:46;;;;;;;6.47;1.10;;;10.90;99.90;;;;;;5004052;28;20123;-83
2022/10/19 01:20:21;;;;;;;6.25;1.20;;;10.90;99.90;;;;;;5026951;28;20150;-83
2022/10/19 01:23:05;;;;;;;;;;;10.90;99.90;;;;;;5007575;28;20128;-83
2022/10/19 01:26:09;;;;;;;14.67;1.67;;;10.90;99.90;;;;;;5010810;28;19976;-83
2022/10/19 01:28:40;;;;;;;12.07;1.63;;;10.90;99.90;;;;;;5009587;28;20300;-84
2022/10/19 01:31:15;;;;;;;4.20;1.13;;;10.90;99.90;;;;;;5022256;28;20552;-82
2022/10/19 01:33:55;;;;;;;7.00;1.10;;;10.90;99.90;;;;;;5004448;28;20399;-84
2022/10/19 01:36:50;;;;;;;6.25;1.00;;;10.90;99.90;;;;;;5005743;28;20497;-83
2022/10/19 01:39:41;;;;;;;5.95;1.02;;;11.00;99.90;;;;;;5020204;28;20130;-83
2022/10/19 01:42:25;;;;;;;3.00;0.77;;;11.00;99.90;;;;;;5005830;28;20121;-83
2022/10/19 01:45:20;;;;;;;7.65;1.15;;;11.00;99.90;;;;;;5030105;28;20089;-83
2022/10/19 01:47:58;;;;;;;;;;;11.00;99.90;;;;;;5011096;28;20053;-84
2022/10/19 01:50:39;;;;;;;2.97;0.65;;;10.90;99.90;;;;;;5026128;28;19921;-82
2022/10/19 01:53:09;;;;;;;5.03;0.50;;;10.90;99.90;;;;;;4992004;28;20080;-82
2022/10/19 01:55:38;;;;;;;4.70;0.80;;;10.90;99.90;;;;;;5027970;28;20041;-84
2022/10/19 01:58:07;;;;;;;5.78;0.82;;;10.80;99.90;;;;;;5011370;28;20054;-83
2022/10/19 02:00:36;;;;;;;7.47;0.82;;;11.90;99.90;;;;;;4991894;28;20057;-82
2022/10/19 02:03:04;;;;;;;8.02;1.10;;;10.90;99.90;;;;;;5010295;28;20499;-82
2022/10/19 02:05:33;;;;;;;5.38;1.45;;;10.90;99.90;;;;;;4992461;28;20045;-83
2022/10/19 02:08:02;;;;;;;7.40;0.73;;;10.90;99.90;;;;;;5010315;28;20045;-83
2022/10/19 02:10:30;;;;;;;6.85;1.15;;;10.90;99.90;;;;;;4994911;28;20061;-82
2022/10/19 02:12:57;;;;;;;4.85;0.65;;;11.40;99.90;;;;;;4987632;28;20037;-83
2022/10/19 02:15:25;;;;;;;9.00;0.77;;;10.70;99.90;;;;;;5007792;28;20045;-82
2022/10/19 02:17:55;;;;;;;10.60;1.13;;;11.60;99.90;;;;;;5025209;28;20405;-83
2022/10/19 02:20:22;;;;;;;3.35;0.45;;;12.30;99.90;;;;;;5025722;28;20447;-83
2022/10/19 02:22:48;;;;;;;3.70;0.80;;;10.90;99.90;;;;;;5026033;28;20037;-82
2022/10/19 02:25:14;;;;;;;5.80;0.80;;;11.90;99.90;;;;;;5028953;28;20083;-82
2022/10/19 02:27:40;;;;;;;4.65;0.70;;;10.90;99.90;;;;;;4994037;28;20124;-83
2022/10/19 02:30:09;;;;;;;8.68;0.77;;;10.90;99.90;;;;;;5007439;28;20052;-83
2022/10/19 02:32:34;;;;;;;7.60;0.70;;;10.90;99.90;;;;;;5010372;28;20044;-83
2022/10/19 02:35:00;;;;;;;4.57;0.70;;;12.30;99.90;;;;;;5011369;28;20041;-84
2022/10/19 02:37:26;;;;;;;7.80;0.95;;;11.00;99.90;;;;;;4994112;28;20041;-82
2022/10/19 02:39:52;;;;;;;7.22;0.65;;;11.00;99.90;;;;;;4993410;28;20038;-83
2022/10/19 02:42:41;;;;;;;5.25;0.65;;;10.90;99.90;;;;;;4994895;28;20076;-83
2022/10/19 02:45:12;;;;;;;6.60;0.50;;;10.90;99.90;;;;;;5022912;28;20158;-82
2022/10/19 02:47:47;;;;;;;12.27;0.93;;;12.20;99.90;;;;;;5008212;28;20413;-83
2022/10/19 02:50:18;;;;;;;5.35;1.05;;;10.90;99.90;;;;;;5008815;28;20083;-83
2022/10/19 02:52:43;;;;;;;4.30;0.40;;;10.90;99.90;;;;;;5008251;28;20077;-83
2022/10/19 02:55:09;;;;;;;6.07;0.90;;;10.90;99.90;;;;;;5024208;28;20096;-82
2022/10/19 02:57:35;;;;;;;7.43;1.15;;;10.90;99.90;;;;;;5007664;28;20437;-84
2022/10/19 03:00:03;;;;;;;5.82;0.77;;;12.00;99.90;;;;;;5025829;28;20054;-83
2022/10/19 03:02:28;;;;;;;7.93;1.10;;;11.90;99.90;;;;;;5021023;28;20073;-84
2022/10/19 03:04:54;;;;;;;4.90;1.10;;;11.20;99.90;;;;;;5002257;28;20046;-83
2022/10/19 03:07:20;;;;;;;4.70;0.82;;;10.90;99.90;;;;;;5003979;28;20053;-83
2022/10/19 03:09:46;;;;;;;5.65;0.73;;;10.90;99.90;;;;;;5003290;28;20095;-83
2022/10/19 03:12:13;;;;;;;3.08;0.60;;;11.00;99.90;;;;;;5003165;28;20531;-83
2022/10/19 03:14:38;;;;;;;4.43;1.27;;;10.90;99.90;;;;;;5020420;28;20037;-83
2022/10/19 03:17:04;;;;;;;6.60;0.80;;;10.80;99.90;;;;;;5002262;28;20104;-82
2022/10/19 03:19:31;;;;;;;5.60;0.80;;;11.60;99.90;;;;;;5002516;28;20064;-82
2022/10/19 03:21:57;;;;;;;7.43;1.30;;;11.90;99.90;;;;;;5023594;28;20069;-82
2022/10/19 03:24:23;;;;;;;5.30;1.10;;;11.30;99.90;;;;;;5003815;28;20411;-82
2022/10/19 03:26:48;;;;;;;12.50;1.55;;;10.80;99.90;;;;;;5002811;28;20045;-83
2022/10/19 03:29:17;;;;;;;7.00;0.80;;;11.90;99.90;;;;;;5002863;28;20048;-83
2022/10/19 03:31:42;;;;;;;3.35;0.60;;;10.70;99.90;;;;;;4989422;28;20038;-83
2022/10/19 03:34:08;;;;;;;4.20;0.77;;;10.70;99.90;;;;;;4992293;28;20084;-83
2022/10/19 03:36:36;;;;;;;5.25;0.73;;;10.70;99.90;;;;;;5008744;28;20037;-83
2022/10/19 03:39:05;;;;;;;10.43;0.90;;;10.70;99.90;;;;;;5005309;28;22331;-82
2022/10/19 03:41:33;;;;;;;2.38;0.68;;;10.60;99.90;;;;;;5008641;28;20092;-82
2022/10/19 03:43:59;;;;;;;7.35;1.27;;;11.20;99.90;;;;;;4993547;28;20055;-82
2022/10/19 03:46:25;;;;;;;6.15;0.63;;;10.70;99.90;;;;;;5027628;28;20048;-82
2022/10/19 03:48:52;;;;;;;5.05;1.10;;;10.60;99.90;;;;;;5024258;28;20050;-82
2022/10/19 03:51:20;;;;;;;3.53;0.60;;;11.40;99.90;;;;;;4989396;28;20049;-82
2022/10/19 03:53:50;;;;;;;6.57;1.58;;;10.50;99.90;;;;;;4992763;28;20045;-83
2022/10/19 03:56:18;;;;;;;4.38;0.50;;;11.60;99.90;;;;;;4992823;28;20041;-82
2022/10/19 03:58:48;;;;;;;3.33;0.57;;;11.70;99.90;;;;;;5025570;28;20041;-82
2022/10/19 04:01:18;;;;;;;6.20;1.05;;;11.30;99.90;;;;;;5003197;28;20030;-82
2022/10/19 04:03:44;;;;;;;4.53;1.08;;;12.00;99.90;;;;;;4989416;28;20052;-82
2022/10/19 04:06:17;;;;;;;6.53;0.85;;;11.70;99.90;;;;;;4987057;28;20034;-82
2022/10/19 04:08:46;;;;;;;3.70;1.08;;;10.50;99.90;;;;;;5026594;28;20049;-82
2022/10/19 04:11:14;;;;;;;9.85;1.20;;;10.70;99.90;;;;;;5015105;28;20036;-82
2022/10/19 04:13:39;;;;;;;7.30;1.15;;;10.40;99.90;;;;;;4993342;28;20658;-82
2022/10/19 04:16:06;;;;;;;5.30;0.98;;;10.90;99.90;;;;;;5008302;28;20108;-82
2022/10/19 04:18:31;;;;;;;6.93;0.57;;;10.40;99.90;;;;;;4992893;28;20149;-82
2022/10/19 04:20:59;;;;;;;6.13;0.90;;;11.80;99.90;;;;;;5007732;28;20532;-82
2022/10/19 04:23:30;;;;;;;4.80;0.77;;;10.40;99.90;;;;;;5005815;28;20060;-82
2022/10/19 04:26:05;;;;;;;5.55;0.93;;;10.40;99.90;;;;;;5007061;28;20064;-82
2022/10/19 04:28:32;;;;;;;5.57;0.82;;;10.40;99.90;;;;;;5003119;28;20045;-83
2022/10/19 04:31:01;;;;;;;4.63;1.08;;;10.40;99.90;;;;;;4990996;28;20034;-82
2022/10/19 04:33:27;;;;;;;7.10;0.98;;;11.60;99.90;;;;;;4991037;28;20440;-83
2022/10/19 04:36:05;;;;;;;2.65;0.90;;;10.00;99.90;;;;;;5005947;28;20042;-83
2022/10/19 04:38:31;;;;;;;15.07;6.07;;;10.40;99.90;;;;;;5024485;28;20463;-83
2022/10/19 04:41:04;;;;;;;11.32;4.32;;;10.40;99.90;;;;;;4988132;28;20041;-83
2022/10/19 04:43:30;;;;;;;8.23;2.65;;;10.60;99.90;;;;;;4990916;28;20061;-83
2022/10/19 04:45:55;;;;;;;9.55;1.60;;;11.20;99.90;;;;;;5004900;28;20076;-83
2022/10/19 04:48:21;;;;;;;8.85;1.00;;;10.40;99.90;;;;;;5005913;28;20081;-83
2022/10/19 04:50:46;;;;;;;4.90;0.95;;;11.70;99.90;;;;;;4989504;28;20133;-83
2022/10/19 04:53:12;;;;;;;7.22;1.23;;;11.70;99.90;;;;;;5008050;28;20072;-83
2022/10/19 04:55:42;;;;;;;8.00;1.75;;;10.30;99.90;;;;;;5006017;28;20581;-83
2022/10/19 04:58:07;;;;;;;10.60;0.82;;;10.30;99.90;;;;;;4985552;28;20128;-83
2022/10/19 05:00:33;;;;;;;5.47;0.95;;;11.50;99.90;;;;;;5025192;28;20148;-83
2022/10/19 05:02:59;;;;;;;10.55;1.55;;;10.30;99.90;;;;;;4994551;28;20045;-83
2022/10/19 05:05:25;;;;;;;8.70;1.70;;;10.40;99.90;;;;;;5028515;28;20093;-83
2022/10/19 05:07:51;;;;;;;10.02;1.25;;;10.30;99.90;;;;;;5008703;28;20096;-83
2022/10/19 05:10:17;;;;;;;5.47;1.42;;;10.70;99.90;;;;;;5009449;28;20041;-83
2022/10/19 05:12:42;;;;;;;10.43;1.75;;;10.30;99.90;;;;;;5009737;28;20624;-83
2022/10/19 05:15:08;;;;;;;18.38;9.45;;;10.30;99.90;;;;;;5011695;28;20049;-83
2022/10/19 05:17:34;;;;;;;16.85;8.30;;;10.40;99.90;;;;;;5030513;28;20099;-83
2022/10/19 05:20:00;;;;;;;11.43;4.15;;;10.40;99.90;;;;;;5031357;28;20175;-83
2022/10/19 05:22:26;;;;;;;14.02;4.70;;;10.30;99.90;;;;;;5013474;28;20116;-83
2022/10/19 05:24:51;;;;;;;8.38;2.42;;;10.30;99.90;;;;;;5031131;28;20041;-83
2022/10/19 05:27:17;;;;;;;13.15;1.98;;;10.30;99.90;;;;;;5031231;28;20045;-83
2022/10/19 05:29:43;;;;;;;13.75;1.83;;;10.30;99.90;;;;;;5012104;28;20046;-83
2022/10/19 05:32:08;;;;;;;13.88;1.92;;;10.40;99.90;;;;;;5012381;28;20064;-83
2022/10/19 05:34:34;;;;;;;11.85;1.85;;;10.30;99.90;;;;;;5026274;28;20116;-83
2022/10/19 05:37:00;;;;;;;11.07;1.83;;;11.10;99.90;;;;;;5012145;28;20052;-83
2022/10/19 05:39:25;;;;;;;13.30;1.80;;;10.30;99.90;;;;;;4994239;28;20045;-83
2022/10/19 05:41:51;;;;;;;16.27;7.10;;;11.40;99.90;;;;;;5011669;28;20041;-82
2022/10/19 05:44:19;;;;;;;20.80;8.52;;;10.20;99.90;;;;;;5011240;28;20060;-83
2022/10/19 05:46:46;;;;;;;12.88;3.90;;;10.30;99.90;;;;;;4993824;28;20061;-83
2022/10/19 05:49:13;;;;;;;8.75;3.58;;;10.30;99.90;;;;;;5012776;28;20038;-83
2022/10/19 05:51:39;;;;;;;10.45;2.47;;;10.30;99.90;;;;;;5008192;28;20519;-83
2022/10/19 05:54:05;;;;;;;8.60;2.17;;;10.10;99.90;;;;;;5011177;28;20068;-83
2022/10/19 05:56:31;;;;;;;5.47;1.27;;;10.30;99.90;;;;;;5011982;28;20394;-83
2022/10/19 05:59:03;;;;;;;9.93;2.25;;;9.70;99.90;;;;;;5012192;28;20033;-83
2022/10/19 06:01:29;;;;;;;9.95;2.53;;;10.30;99.90;;;;;;5008850;28;20489;-83
2022/10/19 06:03:57;;;;;;;9.05;1.80;;;11.50;99.90;;;;;;4989971;28;20116;-83
2022/10/19 06:06:23;;;;;;;11.52;1.95;;;11.50;99.90;;;;;;5023479;28;20040;-82
2022/10/19 06:08:49;;;;;;;10.68;1.52;;;10.40;99.90;;;;;;5009239;28;20045;-82
2022/10/19 06:11:18;;;;;;;6.50;1.52;;;10.40;99.90;;;;;;5009115;28;20473;-81
2022/10/19 06:13:46;;;;;;;14.25;2.30;;;10.40;99.90;;;;;;4989073;28;20111;-82
2022/10/19 06:16:13;;;;;;;14.30;1.92;;;10.30;99.90;;;;;;5003161;28;20139;-83
2022/10/19 06:18:41;;;;;;;10.13;1.40;;;10.30;99.90;;;;;;4987309;28;20080;-82
2022/10/19 06:21:10;;;;;;;8.63;1.77;;;10.30;99.90;;;;;;4986459;28;20128;-82
2022/10/19 06:23:36;;;;;;;12.13;1.60;;;11.60;99.90;;;;;;5002674;28;20045;-82
2022/10/19 06:26:07;;;;;;;13.43;1.50;;;10.40;99.90;;;;;;5002651;28;20515;-82
2022/10/19 06:28:34;;;;;;;6.15;1.45;;;11.20;99.90;;;;;;5002707;28;20063;-83
2022/10/19 06:31:00;;;;;;;9.23;1.50;;;10.40;99.90;;;;;;5003649;28;20184;-83
2022/10/19 06:33:26;;;;;;;9.10;1.13;;;10.40;99.90;;;;;;5003497;28;20170;-82
2022/10/19 06:35:52;;;;;;;7.53;1.77;;;11.20;99.90;;;;;;5002467;28;20045;-83
2022/10/19 06:38:18;;;;;;;10.90;1.33;;;10.40;99.90;;;;;;5026013;28;20037;-83
2022/10/19 06:40:44;;;;;;;10.88;1.70;;;10.40;99.90;;;;;;5022969;28;20491;-82
2022/10/19 06:43:09;;;;;;;13.93;2.13;;;10.40;99.90;;;;;;5002275;28;20393;-83
2022/10/19 06:45:38;;;;;;;6.85;1.42;;;10.40;99.90;;;;;;5020093;28;20103;-82
2022/10/19 06:48:05;;;;;;;11.32;1.75;;;11.70;99.90;;;;;;5002019;28;20041;-83
2022/10/19 06:50:31;;;;;;;5.40;1.25;;;10.40;99.90;;;;;;5018924;28;20084;-83
2022/10/19 06:52:59;;;;;;;14.70;2.10;;;11.60;99.90;;;;;;5020002;28;20049;-83
2022/10/19 06:55:25;;;;;;;11.45;2.05;;;10.40;99.90;;;;;;5020596;28;20034;-83
2022/10/19 06:57:50;;;;;;;12.77;1.92;;;10.40;99.90;;;;;;5003807;28;20048;-83
2022/10/19 07:00:16;;;;;;;10.38;1.92;;;11.30;99.90;;;;;;5008823;28;20456;-83
2022/10/19 07:02:42;;;;;;;17.30;2.63;;;10.40;99.90;;;;;;5023126;28;20048;-83
2022/10/19 07:05:09;;;;;;;7.72;1.40;;;10.40;99.90;;;;;;5009314;28;20058;-82
2022/10/19 07:07:34;;;;;;;14.43;2.72;;;10.40;99.90;;;;;;5025850;28;20053;-82
2022/10/19 07:10:00;;;;;;;10.93;1.95;;;10.40;99.90;;;;;;5007991;28;20041;-82
2022/10/19 07:12:25;;;;;;;10.40;1.75;;;10.40;99.90;;;;;;5025146;28;20088;-82
2022/10/19 07:14:53;;;;;;;13.30;1.88;;;11.10;99.90;;;;;;5006592;28;20060;-83
2022/10/19 07:17:18;;;;;;;10.95;1.80;;;10.50;99.90;;;;;;5008150;28;20033;-83
2022/10/19 07:19:44;;;;;;;8.40;1.70;;;10.80;99.90;;;;;;5006021;28;20124;-82
2022/10/19 07:22:10;;;;;;;6.47;1.58;;;10.70;99.90;;;;;;5003307;28;20049;-78
2022/10/19 07:24:35;;;;;;;16.35;1.85;;;10.50;99.90;;;;;;5026450;28;20045;-78
2022/10/19 07:27:01;;;;;;;8.05;1.65;;;10.50;99.90;;;;;;5008808;28;20054;-78
2022/10/19 07:29:27;;;;;;;12.48;2.40;;;12.20;99.90;;;;;;4993575;28;20041;-82
2022/10/19 07:31:52;;;;;;;6.38;1.52;;;10.20;99.90;;;;;;5009625;28;20091;-81
2022/10/19 07:34:18;;;;;;;10.18;1.77;;;11.10;99.90;;;;;;5010799;28;20034;-83
2022/10/19 07:36:46;;;;;;;15.35;2.20;;;10.60;99.90;;;;;;5027955;28;20404;-80
2022/10/19 07:39:13;;;;;;;11.13;1.83;;;10.70;99.90;;;;;;5027380;28;20424;-83
2022/10/19 07:41:39;;;;;;;10.25;1.52;;;10.70;99.90;;;;;;5027123;28;20041;-80
2022/10/19 07:44:05;;;;;;;12.18;2.08;;;11.50;99.90;;;;;;5008727;28;20060;-78
2022/10/19 07:46:32;;;;;;;8.73;1.30;;;10.70;99.90;;;;;;5027329;28;20045;-81
2022/10/19 07:48:59;;;;;;;8.52;1.35;;;10.80;99.90;;;;;;5009719;28;20037;-79
2022/10/19 07:51:25;;;;;;;6.80;0.93;;;12.00;99.90;;;;;;4992378;28;20053;-77
2022/10/19 07:53:51;;;;;;;12.73;1.75;;;10.80;99.90;;;;;;5029291;28;20083;-79
2022/10/19 07:56:20;;;;;;;11.10;1.73;;;10.80;99.90;;;;;;5029725;28;20037;-80
2022/10/19 07:58:46;;;;;;;11.20;1.73;;;10.80;99.90;;;;;;5007333;28;20050;-84
2022/10/19 08:01:15;;;;;;;14.38;1.92;;;10.90;99.90;;;;;;4995004;28;20052;-78
2022/10/19 08:03:41;;;;;;;10.55;1.17;;;12.70;99.90;;;;;;5012838;28;20041;-80
2022/10/19 08:06:10;;;;;;;11.52;1.52;;;10.90;99.90;;;;;;4997730;28;20048;-76
2022/10/19 08:08:36;;;;;;;8.43;1.10;;;11.80;99.90;;;;;;4992795;28;20050;-75
2022/10/19 08:11:11;;;;;;;11.63;0.90;;;11.70;99.90;;;;;;5008283;28;20033;-76
2022/10/19 08:13:36;;;;;;;;;;;12.60;99.90;;;;;;5007198;28;20456;-78
2022/10/19 08:16:02;;;;;;;9.95;1.20;;;11.10;99.90;;;;;;4994530;28;19965;-77
2022/10/19 08:18:29;;;;;;;11.00;1.58;;;11.10;99.90;;;;;;5011927;28;20046;-82
2022/10/19 08:20:55;;;;;;;10.90;1.48;;;12.40;99.90;;;;;;4996948;28;20052;-85
2022/10/19 08:23:22;;;;;;;8.23;1.33;;;12.00;99.90;;;;;;5027189;28;20458;-79
2022/10/19 08:25:48;;;;;;;9.85;1.50;;;11.10;99.90;;;;;;5029023;28;20046;-85
2022/10/19 08:28:14;;;;;;;7.68;1.45;;;11.20;99.90;;;;;;5011509;28;20052;-81
2022/10/19 08:30:40;;;;;;;9.35;1.67;;;12.30;99.90;;;;;;5011273;28;20041;-83
2022/10/19 08:33:07;;;;;;;13.63;2.10;;;12.00;99.90;;;;;;5011489;28;20041;-78
2022/10/19 08:35:33;;;;;;;9.10;1.10;;;11.20;99.90;;;;;;5028190;28;20053;-82
2022/10/19 08:37:59;;;;;;;8.07;1.20;;;11.30;99.90;;;;;;5007950;28;20234;-82
2022/10/19 08:40:29;;;;;;;8.27;1.35;;;11.30;99.90;;;;;;5024191;28;20124;-78
2022/10/19 08:43:14;;;;;;;9.70;1.40;;;11.70;99.90;;;;;;5011632;28;20041;-82
2022/10/19 08:45:52;;;;;;;10.25;1.38;;;11.40;99.90;;;;;;4992046;28;20124;-80
2022/10/19 08:48:36;;;;;;;14.05;1.88;;;11.40;99.90;;;;;;4999277;28;20468;-80
2022/10/19 08:51:05;;;;;;;7.95;1.17;;;12.40;99.90;;;;;;5029720;28;20057;-84
2022/10/19 08:53:53;;;;;;;9.25;1.00;;;12.70;99.90;;;;;;4997908;28;20085;-82
2022/10/19 08:56:22;;;;;;;7.18;1.08;;;11.50;99.90;;;;;;5029016;28;20037;-82
2022/10/19 08:59:19;;;;;;;8.38;1.25;;;11.50;99.90;;;;;;4999567;28;20053;-82
2022/10/19 09:02:42;;;;;;;8.75;1.23;;;11.60;99.90;;;;;;4992108;28;20042;-81
2022/10/19 09:05:50;;;;;;;11.20;1.50;;;11.60;99.90;;;;;;4929314;29;20043;-82
2022/10/19 09:08:18;;;;;;;5.65;1.35;;;11.70;99.90;;;;;;5022638;28;20053;-82
2022/10/19 09:10:49;;;;;;;10.85;1.23;;;11.70;99.90;;;;;;5008162;28;20049;-81
2022/10/19 09:13:41;;;;;;;9.63;1.00;;;12.50;99.90;;;;;;5010613;28;20095;-81
2022/10/19 09:16:12;;;;;;;5.78;1.35;;;11.70;99.90;;;;;;5010342;28;20527;-82
2022/10/19 09:18:39;;;;;;;7.90;1.30;;;11.70;99.90;;;;;;5010190;28;20135;-81
2022/10/19 09:21:05;;;;;;;12.85;1.70;;;12.90;99.90;;;;;;4993573;28;20491;-80
2022/10/19 09:23:40;;;;;;;11.52;1.38;;;11.80;99.90;;;;;;5024933;28;20132;-82
2022/10/19 09:26:19;;;;;;;7.03;0.80;;;11.80;99.90;;;;;;5009248;28;20176;-81
2022/10/19 09:28:57;;;;;;;10.25;1.40;;;11.80;99.90;;;;;;5009957;28;20453;-81
2022/10/19 09:31:31;;;;;;;11.50;1.38;;;11.90;99.90;;;;;;5028918;28;20076;-82
2022/10/19 09:34:06;;;;;;;10.00;1.05;;;11.90;99.90;;;;;;5011792;28;20048;-81
2022/10/19 09:36:40;;;;;;;5.45;1.30;;;11.90;99.90;;;;;;5008011;28;20463;-80
2022/10/19 09:39:09;;;;;;;9.25;1.48;;;12.00;99.90;;;;;;5010035;28;20444;-80
2022/10/19 09:41:35;;;;;;;10.85;1.63;;;12.90;99.90;;;;;;4990716;28;20046;-80
2022/10/19 09:44:01;;;;;;;9.45;1.67;;;12.10;99.90;;;;;;5006727;28;20049;-81
2022/10/19 09:46:56;;;;;;;10.20;1.02;;;12.00;99.90;;;;;;5011153;28;20037;-81
2022/10/19 09:49:41;;;;;;;;;;;12.50;99.90;;;;;;5019892;28;20095;-82
2022/10/19 09:52:28;;;;;;;8.93;1.05;;;12.00;99.90;;;;;;5010033;28;20258;-81
2022/10/19 09:55:04;;;;;;;12.63;1.50;;;12.00;99.90;;;;;;5007733;28;20053;-82
2022/10/19 09:57:30;;;;;;;14.77;2.13;;;12.00;99.90;;;;;;5011055;28;20042;-81
2022/10/19 09:59:56;;;;;;;11.50;1.10;;;12.90;99.90;;;;;;5010729;28;20088;-83
2022/10/19 10:02:29;;;;;;;7.38;0.80;;;13.00;99.90;;;;;;5010002;28;20574;-77
2022/10/19 10:05:03;;;;;;;10.88;1.05;;;13.40;99.90;;;;;;5030579;28;20048;-78
2022/10/19 10:07:35;;;;;;;14.20;1.55;;;12.00;99.90;;;;;;5011227;28;20444;-77
2022/10/19 10:10:02;;;;;;;4.38;0.60;;;12.90;99.90;;;;;;5011573;28;20041;-77
2022/10/19 10:12:27;;;;;;;5.18;0.85;;;12.10;99.90;;;;;;4996631;28;20049;-78
2022/10/19 10:14:55;;;;;;;10.02;1.92;;;12.10;99.90;;;;;;5013266;28;20350;-78
2022/10/19 10:17:25;;;;;;;4.05;1.20;;;13.30;99.90;;;;;;4996141;28;20427;-76
2022/10/19 10:19:57;;;;;;;8.00;0.95;;;12.10;99.90;;;;;;4996331;28;20034;-77
2022/10/19 10:22:26;;;;;;;10.95;1.50;;;12.20;99.90;;;;;;4997180;28;20488;-77
2022/10/19 10:24:54;;;;;;;10.38;1.55;;;12.20;99.90;;;;;;4994546;28;20159;-79
2022/10/19 10:27:33;;;;;;;5.97;1.30;;;12.40;99.90;;;;;;5012718;28;20354;-76
2022/10/19 10:30:03;;;;;;;13.00;1.80;;;12.90;99.90;;;;;;4994202;28;20056;-81
2022/10/19 10:32:29;;;;;;;8.80;0.63;;;13.10;99.90;;;;;;5009745;28;20064;-77
2022/10/19 10:35:01;;;;;;;10.80;1.58;;;11.20;99.90;;;;;;5009537;28;20488;-81
2022/10/19 10:37:36;;;;;;;11.13;1.63;;;12.70;99.90;;;;;;5009664;28;20059;-82
2022/10/19 10:40:04;;;;;;;8.10;1.13;;;12.30;99.90;;;;;;4991032;28;20091;-82
2022/10/19 10:42:35;;;;;;;6.28;1.38;;;12.30;99.90;;;;;;5025926;28;20088;-77
2022/10/19 10:45:02;;;;;;;6.50;1.10;;;12.40;99.90;;;;;;5025282;28;20049;-81
2022/10/19 10:47:28;;;;;;;6.32;1.10;;;12.40;99.90;;;;;;5005168;28;20054;-82
2022/10/19 10:50:01;;;;;;;8.95;0.75;;;12.40;99.90;;;;;;5010209;28;20041;-81
2022/10/19 10:52:30;;;;;;;8.65;1.20;;;12.40;99.90;;;;;;4994809;28;20207;-82
2022/10/19 10:55:15;;;;;;;8.23;1.08;;;12.50;99.90;;;;;;5028429;28;20048;-81
2022/10/19 10:57:48;;;;;;;6.30;1.08;;;12.90;99.90;;;;;;4994780;28;20080;-81
2022/10/19 11:00:20;;;;;;;7.90;1.13;;;12.70;99.90;;;;;;5025779;28;20045;-81
2022/10/19 11:03:15;;;;;;;5.50;0.70;;;12.80;99.90;;;;;;4990886;28;20038;-81
2022/10/19 11:05:46;;;;;;;10.85;1.23;;;12.90;99.90;;;;;;5028987;28;20041;-81
2022/10/19 11:08:47;;;;;;;5.32;0.95;;;12.90;99.90;;;;;;5008626;28;20081;-81
2022/10/19 11:11:29;;;;;;;11.45;1.13;;;13.00;99.90;;;;;;5006700;28;20558;-80
2022/10/19 11:14:03;;;;;;;6.60;1.15;;;13.00;99.90;;;;;;5010634;28;20045;-81
2022/10/19 11:16:40;;;;;;;8.32;1.40;;;12.90;99.90;;;;;;5011358;28;20050;-81
2022/10/19 11:19:15;;;;;;;5.55;0.80;;;12.80;99.90;;;;;;5010082;28;20057;-80
2022/10/19 11:21:53;;;;;;;;;;;12.80;99.90;;;;;;4994402;28;20045;-80
2022/10/19 11:25:05;;;;;;;8.38;1.13;;;12.80;99.90;;;;;;4995056;28;19921;-81
2022/10/19 11:27:46;;;;;;;3.08;0.85;;;12.80;99.90;;;;;;4922987;29;20046;-81
2022/10/19 11:30:23;;;;;;;12.85;1.23;;;12.80;99.90;;;;;;5016225;28;20053;-81
2022/10/19 11:33:33;;;;;;;9.98;1.13;;;12.80;99.90;;;;;;5017607;28;20493;-81
2022/10/19 11:36:03;;;;;;;6.10;1.35;;;12.80;99.90;;;;;;4983744;28;20426;-81
2022/10/19 11:38:41;;;;;;;9.57;0.85;;;13.00;99.90;;;;;;4994453;28;20072;-81
2022/10/19 11:41:13;;;;;;;5.65;1.00;;;12.80;99.90;;;;;;5008439;28;20045;-81
2022/10/19 11:43:49;;;;;;;9.25;1.63;;;13.90;99.90;;;;;;5004796;28;20444;-81
2022/10/19 11:46:28;;;;;;;7.45;1.17;;;12.80;99.90;;;;;;5011161;28;20060;-81
2022/10/19 11:49:09;;;;;;;6.53;1.20;;;12.80;99.90;;;;;;5003466;28;20076;-80
2022/10/19 11:52:00;;;;;;;6.15;1.23;;;12.80;99.90;;;;;;4991828;28;20048;-78
2022/10/19 11:54:35;;;;;;;7.20;1.13;;;12.90;99.90;;;;;;4996052;28;20033;-80
2022/10/19 11:57:19;;;;;;;8.23;1.10;;;12.90;99.90;;;;;;5028682;28;20071;-81
2022/10/19 11:59:52;;;;;;;4.82;1.02;;;13.00;99.90;;;;;;5009291;28;20183;-82
2022/10/19 12:02:36;;;;;;;3.10;0.70;;;13.80;99.90;;;;;;5012440;28;20503;-83
2022/10/19 12:05:20;;;;;;;6.22;1.48;;;13.90;99.90;;;;;;5024154;28;20164;-79
2022/10/19 12:08:24;;;;;;;9.40;1.77;;;13.00;99.90;;;;;;4990551;28;20500;-82
2022/10/19 12:11:15;;;;;;;6.10;1.00;;;13.00;99.90;;;;;;5008135;28;20044;-81
2022/10/19 12:13:47;;;;;;;10.48;1.20;;;12.90;99.90;;;;;;5007385;28;20052;-81
2022/10/19 12:16:13;;;;;;;6.78;0.73;;;12.90;99.90;;;;;;5008541;28;20172;-77
2022/10/19 12:18:45;;;;;;;6.75;0.98;;;13.40;99.90;;;;;;4992859;28;20052;-76
2022/10/19 12:21:38;;;;;;;7.88;1.02;;;13.10;99.90;;;;;;5007103;28;20055;-78
2022/10/19 12:24:13;;;;;;;12.73;2.00;;;13.30;99.90;;;;;;5003879;28;20504;-82
2022/10/19 12:26:39;;;;;;;7.40;1.27;;;12.80;99.90;;;;;;5014613;28;20119;-82
2022/10/19 12:29:12;;;;;;;4.97;1.17;;;13.90;99.90;;;;;;5014722;28;20045;-82
2022/10/19 12:31:39;;;;;;;10.57;1.30;;;14.20;99.90;;;;;;5007649;28;20053;-83
2022/10/19 12:34:34;;;;;;;8.85;1.20;;;13.00;99.90;;;;;;4996860;28;20057;-76
2022/10/19 12:37:24;;;;;;;12.85;1.30;;;13.10;99.90;;;;;;5028065;28;20699;-76
2022/10/19 12:40:01;;;;;;;9.40;0.85;;;13.10;99.90;;;;;;5022148;28;20131;-76
2022/10/19 12:42:52;;;;;;;7.18;1.17;;;13.10;99.90;;;;;;5007488;28;20058;-80
2022/10/19 12:45:32;;;;;;;5.55;1.00;;;13.10;99.90;;;;;;4996445;28;20038;-80
2022/10/19 12:48:19;;;;;;;6.22;1.33;;;13.10;99.90;;;;;;5032647;28;20064;-81
2022/10/19 12:50:48;;;;;;;12.70;1.45;;;13.10;99.90;;;;;;5013172;28;20037;-86
2022/10/19 12:53:26;;;;;;;7.82;1.10;;;13.10;99.90;;;;;;5010103;28;20400;-83
2022/10/19 12:56:19;;;;;;;8.38;1.35;;;13.10;99.90;;;;;;4996409;28;20056;-80
2022/10/19 12:59:00;;;;;;;5.28;1.00;;;13.10;99.90;;;;;;5027240;28;20061;-81
2022/10/19 13:01:35;;;;;;;6.18;1.25;;;14.00;99.90;;;;;;5026718;28;20132;-82
2022/10/19 13:04:21;;;;;;;8.10;0.95;;;13.20;99.90;;;;;;4996472;28;20073;-82
2022/10/19 13:06:48;;;;;;;7.57;1.17;;;14.20;99.90;;;;;;5017801;28;20622;-83